AAL1405 KDFW-KLAX
Flight info
| Callsign | AAL1405 |
|---|---|
| Flight time | N/A |
| Altitude | 40000 |
| Route | KATZZ2 BRHMA CNX ONM SJN DRK J231 HIPPI GABBL HLYWD1 |
| Aircraft | B789/H-SDE1E2E3FGHIJ2J3J4J5M1RWXY/LB1D1 |
Departure
| Time | 2026-05-01 12:53 |
|---|---|
| Airport | Dallas Fort Worth International Airport (KDFW) |
Arrival
| Time | N/A |
|---|---|
| Airport | Los Angeles International Airport (KLAX) |
| Time | Latitude | Longitude | Altitude | Speed | Heading |
|---|---|---|---|---|---|
| 2026-05-01 12:19 | 32.90355 | -97.03472 | 594 ft | 0 kts | 311° |
| 2026-05-01 12:41 | 32.90356 | -97.03474 | 594 ft | 0 kts | 322° |
| 2026-05-01 12:42 | 32.90363 | -97.03475 | 594 ft | 1 kts | 353° |
| 2026-05-01 12:42 | 32.90375 | -97.03463 | 594 ft | 3 kts | 60° |
| 2026-05-01 12:42 | 32.90378 | -97.03432 | 593 ft | 4 kts | 91° |
| 2026-05-01 12:42 | 32.90372 | -97.03387 | 593 ft | 6 kts | 104° |
| 2026-05-01 12:43 | 32.90347 | -97.03338 | 592 ft | 8 kts | 146° |
| 2026-05-01 12:43 | 32.90287 | -97.03316 | 590 ft | 10 kts | 174° |
| 2026-05-01 12:43 | 32.90210 | -97.03314 | 589 ft | 11 kts | 180° |
| 2026-05-01 12:43 | 32.90123 | -97.03316 | 587 ft | 13 kts | 181° |
| 2026-05-01 12:44 | 32.90032 | -97.03316 | 588 ft | 12 kts | 180° |
| 2026-05-01 12:44 | 32.89946 | -97.03316 | 587 ft | 12 kts | 180° |
| 2026-05-01 12:44 | 32.89764 | -97.03316 | 585 ft | 13 kts | 180° |
| 2026-05-01 12:45 | 32.89590 | -97.03317 | 583 ft | 12 kts | 180° |
| 2026-05-01 12:45 | 32.89500 | -97.03318 | 582 ft | 13 kts | 180° |
| 2026-05-01 12:45 | 32.89407 | -97.03319 | 581 ft | 13 kts | 180° |
| 2026-05-01 12:46 | 32.89318 | -97.03320 | 581 ft | 12 kts | 180° |
| 2026-05-01 12:46 | 32.89236 | -97.03320 | 581 ft | 11 kts | 180° |
| 2026-05-01 12:46 | 32.89156 | -97.03320 | 581 ft | 11 kts | 181° |
| 2026-05-01 12:46 | 32.89073 | -97.03321 | 580 ft | 12 kts | 180° |
| 2026-05-01 12:47 | 32.88982 | -97.03322 | 578 ft | 13 kts | 180° |
| 2026-05-01 12:47 | 32.88891 | -97.03322 | 578 ft | 12 kts | 180° |
| 2026-05-01 12:47 | 32.88801 | -97.03323 | 578 ft | 12 kts | 180° |
| 2026-05-01 12:47 | 32.88712 | -97.03323 | 578 ft | 12 kts | 180° |
| 2026-05-01 12:48 | 32.88624 | -97.03348 | 578 ft | 13 kts | 223° |
| 2026-05-01 12:48 | 32.88602 | -97.03466 | 578 ft | 16 kts | 269° |
| 2026-05-01 12:48 | 32.88603 | -97.03606 | 576 ft | 18 kts | 271° |
| 2026-05-01 12:48 | 32.88605 | -97.03763 | 575 ft | 19 kts | 271° |
| 2026-05-01 12:49 | 32.88605 | -97.03926 | 574 ft | 19 kts | 269° |
| 2026-05-01 12:49 | 32.88604 | -97.04090 | 574 ft | 19 kts | 271° |
| 2026-05-01 12:49 | 32.88606 | -97.04241 | 577 ft | 17 kts | 269° |
| 2026-05-01 12:49 | 32.88606 | -97.04373 | 579 ft | 14 kts | 270° |
| 2026-05-01 12:50 | 32.88607 | -97.04483 | 581 ft | 12 kts | 271° |
| 2026-05-01 12:50 | 32.88607 | -97.04574 | 583 ft | 10 kts | 269° |
| 2026-05-01 12:50 | 32.88606 | -97.04663 | 584 ft | 11 kts | 270° |
| 2026-05-01 12:50 | 32.88606 | -97.04770 | 584 ft | 14 kts | 270° |
| 2026-05-01 12:51 | 32.88579 | -97.04882 | 583 ft | 16 kts | 208° |
| 2026-05-01 12:51 | 32.88454 | -97.04895 | 581 ft | 19 kts | 180° |
| 2026-05-01 12:51 | 32.88163 | -97.04896 | 577 ft | 21 kts | 180° |
| 2026-05-01 12:52 | 32.88012 | -97.04897 | 575 ft | 21 kts | 180° |
| 2026-05-01 12:52 | 32.87955 | -97.05087 | 572 ft | 14 kts | 346° |
| 2026-05-01 12:52 | 32.88128 | -97.05095 | 575 ft | 55 kts | 2° |
| 2026-05-01 12:53 | 32.89953 | -97.05034 | 953 ft | 180 kts | 6° |
| 2026-05-01 12:53 | 32.91237 | -97.05066 | 1743 ft | 197 kts | 355° |
| 2026-05-01 12:53 | 32.92697 | -97.05394 | 2068 ft | 233 kts | 349° |
| 2026-05-01 12:54 | 32.94359 | -97.05877 | 2529 ft | 261 kts | 349° |
| 2026-05-01 12:54 | 32.97683 | -97.06959 | 3441 ft | 242 kts | 348° |
| 2026-05-01 12:54 | 32.99313 | -97.07595 | 4243 ft | 259 kts | 335° |
| 2026-05-01 12:55 | 33.00801 | -97.11359 | 6609 ft | 274 kts | 272° |
| 2026-05-01 12:55 | 33.00766 | -97.13622 | 7675 ft | 278 kts | 270° |
| 2026-05-01 12:55 | 33.00678 | -97.15893 | 8675 ft | 282 kts | 268° |
| 2026-05-01 12:56 | 33.00494 | -97.18288 | 9494 ft | 294 kts | 265° |
| 2026-05-01 12:56 | 33.00281 | -97.20676 | 10551 ft | 295 kts | 264° |
| 2026-05-01 12:56 | 32.99967 | -97.23231 | 10670 ft | 331 kts | 254° |
| 2026-05-01 12:56 | 32.99012 | -97.25806 | 11392 ft | 345 kts | 245° |
| 2026-05-01 12:57 | 32.97968 | -97.28336 | 12540 ft | 344 kts | 245° |
| 2026-05-01 12:57 | 32.95852 | -97.33164 | 15416 ft | 320 kts | 245° |
| 2026-05-01 12:57 | 32.94869 | -97.35431 | 16835 ft | 306 kts | 243° |
| 2026-05-01 12:58 | 32.93893 | -97.37621 | 17975 ft | 300 kts | 243° |
| 2026-05-01 12:58 | 32.92915 | -97.39797 | 18820 ft | 302 kts | 243° |
| 2026-05-01 12:58 | 32.91915 | -97.42028 | 19406 ft | 310 kts | 243° |
| 2026-05-01 12:59 | 32.89861 | -97.46622 | 20761 ft | 320 kts | 243° |
| 2026-05-01 12:59 | 32.88805 | -97.48968 | 21421 ft | 325 kts | 243° |
| 2026-05-01 12:59 | 32.86654 | -97.53758 | 22667 ft | 334 kts | 243° |
| 2026-05-01 13:00 | 32.84442 | -97.58678 | 23846 ft | 343 kts | 243° |
| 2026-05-01 13:00 | 32.83328 | -97.61155 | 24428 ft | 346 kts | 243° |
| 2026-05-01 13:01 | 32.81039 | -97.66233 | 25720 ft | 349 kts | 242° |
| 2026-05-01 13:01 | 32.79908 | -97.68738 | 26365 ft | 350 kts | 241° |
| 2026-05-01 13:01 | 32.78554 | -97.74248 | 27486 ft | 369 kts | 270° |
| 2026-05-01 13:02 | 32.79082 | -97.77273 | 28075 ft | 375 kts | 274° |
| 2026-05-01 13:07 | 32.92813 | -98.38033 | 37980 ft | 354 kts | 275° |
| 2026-05-01 13:07 | 32.93460 | -98.40851 | 38242 ft | 354 kts | 275° |
| 2026-05-01 13:07 | 32.94109 | -98.43684 | 38537 ft | 353 kts | 275° |
| 2026-05-01 13:08 | 32.94745 | -98.46454 | 38778 ft | 352 kts | 275° |
| 2026-05-01 13:08 | 32.95393 | -98.49284 | 38998 ft | 352 kts | 275° |
| 2026-05-01 13:08 | 32.96033 | -98.52080 | 39206 ft | 353 kts | 275° |
| 2026-05-01 13:08 | 32.96665 | -98.54854 | 39397 ft | 353 kts | 276° |
| 2026-05-01 13:09 | 32.97306 | -98.57666 | 39586 ft | 353 kts | 276° |
| 2026-05-01 13:09 | 32.97955 | -98.60514 | 39750 ft | 354 kts | 276° |
| 2026-05-01 13:09 | 32.98594 | -98.63328 | 39937 ft | 353 kts | 276° |
| 2026-05-01 13:09 | 32.99237 | -98.66151 | 40079 ft | 355 kts | 276° |
| 2026-05-01 13:10 | 32.99880 | -98.68990 | 40093 ft | 360 kts | 276° |
| 2026-05-01 13:10 | 33.01203 | -98.74835 | 40102 ft | 371 kts | 276° |
| 2026-05-01 13:11 | 33.02562 | -98.80843 | 40102 ft | 383 kts | 276° |
| 2026-05-01 13:11 | 33.03962 | -98.87047 | 40102 ft | 395 kts | 277° |
| 2026-05-01 13:12 | 33.05408 | -98.93480 | 40100 ft | 406 kts | 277° |
| 2026-05-01 13:12 | 33.06862 | -98.99934 | 40090 ft | 407 kts | 277° |
| 2026-05-01 13:13 | 33.08324 | -99.06448 | 40089 ft | 405 kts | 277° |
| 2026-05-01 13:13 | 33.09774 | -99.12935 | 40090 ft | 405 kts | 277° |
| 2026-05-01 13:14 | 33.11211 | -99.19380 | 40078 ft | 405 kts | 277° |
| 2026-05-01 13:14 | 33.12652 | -99.25869 | 40085 ft | 405 kts | 277° |
| 2026-05-01 13:15 | 33.14097 | -99.32390 | 40082 ft | 405 kts | 277° |
| 2026-05-01 13:15 | 33.15529 | -99.38869 | 40083 ft | 406 kts | 277° |
| 2026-05-01 13:16 | 33.16965 | -99.45383 | 40083 ft | 406 kts | 277° |
| 2026-05-01 13:16 | 33.18393 | -99.51883 | 40084 ft | 405 kts | 277° |
| 2026-05-01 13:17 | 33.21282 | -99.64841 | 40084 ft | 406 kts | 277° |
| 2026-05-01 13:18 | 33.23490 | -99.74585 | 40094 ft | 406 kts | 277° |
| 2026-05-01 13:18 | 33.24963 | -99.81097 | 40094 ft | 405 kts | 277° |
| 2026-05-01 13:19 | 33.26426 | -99.87581 | 40099 ft | 405 kts | 277° |
| 2026-05-01 13:20 | 33.28620 | -99.97330 | 40099 ft | 407 kts | 277° |
| 2026-05-01 13:20 | 33.30068 | -100.03807 | 40100 ft | 409 kts | 277° |
| 2026-05-01 13:21 | 33.32276 | -100.13685 | 40098 ft | 410 kts | 277° |
| 2026-05-01 13:21 | 33.33737 | -100.20239 | 40098 ft | 409 kts | 277° |
| 2026-05-01 13:22 | 33.35194 | -100.26803 | 40099 ft | 410 kts | 277° |
| 2026-05-01 13:22 | 33.36656 | -100.33401 | 40093 ft | 410 kts | 277° |
| 2026-05-01 13:23 | 33.38108 | -100.39972 | 40093 ft | 410 kts | 277° |
| 2026-05-01 13:23 | 33.39565 | -100.46586 | 40093 ft | 410 kts | 277° |
| 2026-05-01 13:24 | 33.41011 | -100.53175 | 40099 ft | 411 kts | 277° |
| 2026-05-01 13:25 | 33.43180 | -100.63088 | 40098 ft | 412 kts | 277° |
| 2026-05-01 13:25 | 33.44624 | -100.69707 | 40114 ft | 412 kts | 277° |
| 2026-05-01 13:26 | 33.46070 | -100.76350 | 40114 ft | 413 kts | 277° |
| 2026-05-01 13:26 | 33.47509 | -100.82984 | 40113 ft | 414 kts | 277° |
| 2026-05-01 13:27 | 33.48949 | -100.89638 | 40113 ft | 414 kts | 277° |
| 2026-05-01 13:27 | 33.51105 | -100.99643 | 40109 ft | 415 kts | 277° |
| 2026-05-01 13:28 | 33.53201 | -101.09728 | 40108 ft | 417 kts | 277° |
| 2026-05-01 13:29 | 33.55927 | -101.23200 | 40103 ft | 417 kts | 277° |
| 2026-05-01 13:31 | 33.60014 | -101.43574 | 40104 ft | 421 kts | 277° |
| 2026-05-01 13:32 | 33.63411 | -101.60667 | 40101 ft | 423 kts | 277° |
| 2026-05-01 13:33 | 33.66799 | -101.77827 | 40114 ft | 424 kts | 277° |
| 2026-05-01 13:34 | 33.69499 | -101.91612 | 40113 ft | 425 kts | 277° |
| 2026-05-01 13:35 | 33.71520 | -102.01993 | 40113 ft | 427 kts | 277° |
| 2026-05-01 13:36 | 33.73535 | -102.12388 | 40117 ft | 426 kts | 277° |
| 2026-05-01 13:36 | 33.75536 | -102.22752 | 40116 ft | 426 kts | 277° |
| 2026-05-01 13:37 | 33.76861 | -102.29642 | 40116 ft | 426 kts | 277° |
| 2026-05-01 13:37 | 33.78191 | -102.36587 | 40116 ft | 426 kts | 277° |
| 2026-05-01 13:38 | 33.80177 | -102.47000 | 40113 ft | 425 kts | 277° |
| 2026-05-01 13:39 | 33.81490 | -102.53910 | 40113 ft | 425 kts | 277° |
| 2026-05-01 13:39 | 33.82800 | -102.60823 | 40112 ft | 425 kts | 277° |
| 2026-05-01 13:40 | 33.84105 | -102.67753 | 40126 ft | 425 kts | 277° |
| 2026-05-01 13:40 | 33.85406 | -102.74657 | 40125 ft | 425 kts | 277° |
| 2026-05-01 13:41 | 33.86710 | -102.81612 | 40129 ft | 425 kts | 277° |
| 2026-05-01 13:41 | 33.88009 | -102.88557 | 40130 ft | 426 kts | 277° |
| 2026-05-01 13:42 | 33.89295 | -102.95462 | 40132 ft | 426 kts | 277° |
| 2026-05-01 13:42 | 33.90602 | -103.02502 | 40132 ft | 426 kts | 278° |
| 2026-05-01 13:43 | 33.91891 | -103.09473 | 40125 ft | 426 kts | 278° |
| 2026-05-01 13:43 | 33.93179 | -103.16457 | 40120 ft | 426 kts | 278° |
| 2026-05-01 13:44 | 33.94461 | -103.23434 | 40120 ft | 427 kts | 278° |
| 2026-05-01 13:44 | 33.95733 | -103.30367 | 40124 ft | 428 kts | 278° |
| 2026-05-01 13:45 | 33.97011 | -103.37367 | 40115 ft | 429 kts | 278° |
| 2026-05-01 13:45 | 33.98288 | -103.44383 | 40112 ft | 429 kts | 279° |
| 2026-05-01 13:46 | 33.99558 | -103.51390 | 40111 ft | 430 kts | 279° |
| 2026-05-01 13:46 | 34.00823 | -103.58411 | 40105 ft | 430 kts | 279° |
| 2026-05-01 13:47 | 34.02100 | -103.65479 | 40104 ft | 431 kts | 279° |
| 2026-05-01 13:47 | 34.03363 | -103.72508 | 40114 ft | 430 kts | 279° |
| 2026-05-01 13:48 | 34.04627 | -103.79569 | 40114 ft | 430 kts | 279° |
| 2026-05-01 13:48 | 34.05879 | -103.86588 | 40112 ft | 430 kts | 279° |
| 2026-05-01 13:49 | 34.07126 | -103.93609 | 40111 ft | 430 kts | 279° |
| 2026-05-01 13:49 | 34.08375 | -104.00664 | 40108 ft | 430 kts | 279° |
| 2026-05-01 13:50 | 34.09632 | -104.07792 | 40108 ft | 431 kts | 279° |
| 2026-05-01 13:50 | 34.10887 | -104.14934 | 40101 ft | 431 kts | 279° |
| 2026-05-01 13:51 | 34.12143 | -104.22103 | 40101 ft | 431 kts | 279° |
| 2026-05-01 13:51 | 34.13390 | -104.29251 | 40101 ft | 431 kts | 279° |
| 2026-05-01 13:52 | 34.14634 | -104.36408 | 40102 ft | 432 kts | 279° |
| 2026-05-01 13:52 | 34.15876 | -104.43587 | 40102 ft | 431 kts | 279° |
| 2026-05-01 13:53 | 34.17108 | -104.50720 | 40104 ft | 432 kts | 279° |
| 2026-05-01 13:53 | 34.18958 | -104.61487 | 40116 ft | 432 kts | 279° |
| 2026-05-01 13:54 | 34.20165 | -104.68550 | 40141 ft | 433 kts | 278° |
| 2026-05-01 13:54 | 34.21375 | -104.75656 | 40139 ft | 433 kts | 279° |
| 2026-05-01 13:55 | 34.22590 | -104.82805 | 40142 ft | 434 kts | 279° |
| 2026-05-01 13:55 | 34.23798 | -104.89946 | 40142 ft | 434 kts | 279° |
| 2026-05-01 13:56 | 34.24993 | -104.97047 | 40144 ft | 434 kts | 279° |
| 2026-05-01 13:56 | 34.26198 | -105.04218 | 40145 ft | 434 kts | 279° |
| 2026-05-01 13:57 | 34.27392 | -105.11352 | 40145 ft | 434 kts | 279° |
| 2026-05-01 13:57 | 34.28576 | -105.18468 | 40147 ft | 435 kts | 279° |
| 2026-05-01 13:58 | 34.29764 | -105.25620 | 40146 ft | 435 kts | 279° |
| 2026-05-01 13:58 | 34.30949 | -105.32792 | 40148 ft | 436 kts | 279° |
| 2026-05-01 13:59 | 34.32125 | -105.39934 | 40157 ft | 435 kts | 279° |
| 2026-05-01 13:59 | 34.33306 | -105.47125 | 40157 ft | 435 kts | 279° |
| 2026-05-01 14:00 | 34.34484 | -105.54324 | 40159 ft | 435 kts | 279° |
| 2026-05-01 14:00 | 34.35645 | -105.61460 | 40158 ft | 435 kts | 279° |
| 2026-05-01 14:01 | 34.36460 | -105.68694 | 40187 ft | 434 kts | 269° |
| 2026-05-01 14:01 | 34.36421 | -105.75992 | 40174 ft | 434 kts | 268° |
| 2026-05-01 14:02 | 34.36319 | -105.83296 | 40170 ft | 434 kts | 268° |
| 2026-05-01 14:02 | 34.36184 | -105.90559 | 40168 ft | 434 kts | 268° |
| 2026-05-01 14:03 | 34.36032 | -105.97863 | 40166 ft | 434 kts | 268° |
| 2026-05-01 14:03 | 34.35869 | -106.05160 | 40140 ft | 435 kts | 268° |
| 2026-05-01 14:04 | 34.35702 | -106.12442 | 40137 ft | 435 kts | 268° |
| 2026-05-01 14:04 | 34.35528 | -106.19754 | 40133 ft | 434 kts | 268° |
| 2026-05-01 14:05 | 34.35351 | -106.27012 | 40129 ft | 435 kts | 268° |
| 2026-05-01 14:05 | 34.35167 | -106.34342 | 40125 ft | 435 kts | 268° |
| 2026-05-01 14:06 | 34.34980 | -106.41647 | 40120 ft | 434 kts | 268° |
| 2026-05-01 14:06 | 34.34788 | -106.48936 | 40117 ft | 434 kts | 268° |
| 2026-05-01 14:07 | 34.34594 | -106.56196 | 40113 ft | 435 kts | 268° |
| 2026-05-01 14:08 | 34.34289 | -106.67180 | 40112 ft | 434 kts | 267° |
| 2026-05-01 14:08 | 34.34083 | -106.74454 | 40114 ft | 434 kts | 267° |
| 2026-05-01 14:09 | 34.33902 | -106.81722 | 40106 ft | 434 kts | 270° |
| 2026-05-01 14:09 | 34.34201 | -106.89023 | 40112 ft | 433 kts | 272° |
| 2026-05-01 14:10 | 34.34519 | -106.96262 | 40109 ft | 433 kts | 272° |
| 2026-05-01 14:10 | 34.34839 | -107.03526 | 40109 ft | 433 kts | 272° |
| 2026-05-01 14:11 | 34.35157 | -107.10789 | 40108 ft | 434 kts | 272° |
| 2026-05-01 14:11 | 34.35628 | -107.21685 | 40107 ft | 434 kts | 272° |
| 2026-05-01 14:12 | 34.35938 | -107.28992 | 40107 ft | 434 kts | 272° |
| 2026-05-01 14:12 | 34.36246 | -107.36294 | 40108 ft | 434 kts | 272° |
| 2026-05-01 14:13 | 34.36546 | -107.43560 | 40107 ft | 434 kts | 272° |
| 2026-05-01 14:13 | 34.36843 | -107.50819 | 40110 ft | 433 kts | 272° |
| 2026-05-01 14:14 | 34.37136 | -107.58104 | 40114 ft | 433 kts | 272° |
| 2026-05-01 14:14 | 34.37425 | -107.65388 | 40115 ft | 434 kts | 272° |
| 2026-05-01 14:15 | 34.37707 | -107.72642 | 40125 ft | 434 kts | 272° |
| 2026-05-01 14:15 | 34.37987 | -107.79916 | 40126 ft | 434 kts | 272° |
| 2026-05-01 14:16 | 34.38263 | -107.87189 | 40125 ft | 433 kts | 272° |
| 2026-05-01 14:16 | 34.38535 | -107.94486 | 40126 ft | 433 kts | 272° |
| 2026-05-01 14:17 | 34.38801 | -108.01753 | 40126 ft | 432 kts | 272° |
| 2026-05-01 14:17 | 34.39062 | -108.08981 | 40123 ft | 431 kts | 272° |
| 2026-05-01 14:18 | 34.39319 | -108.16224 | 40121 ft | 431 kts | 272° |
| 2026-05-01 14:18 | 34.39529 | -108.22244 | 40120 ft | 432 kts | 272° |
| 2026-05-01 14:19 | 34.39819 | -108.30680 | 40118 ft | 431 kts | 272° |
| 2026-05-01 14:19 | 34.40064 | -108.37946 | 40114 ft | 432 kts | 272° |
| 2026-05-01 14:20 | 34.40422 | -108.48815 | 40113 ft | 433 kts | 272° |
| 2026-05-01 14:21 | 34.40657 | -108.56117 | 40111 ft | 432 kts | 272° |
| 2026-05-01 14:21 | 34.40886 | -108.63343 | 40109 ft | 431 kts | 272° |
| 2026-05-01 14:22 | 34.41221 | -108.74195 | 40102 ft | 431 kts | 271° |
| 2026-05-01 14:22 | 34.41438 | -108.81410 | 40096 ft | 431 kts | 271° |
| 2026-05-01 14:23 | 34.41652 | -108.88635 | 40092 ft | 431 kts | 271° |
| 2026-05-01 14:23 | 34.41862 | -108.95904 | 40090 ft | 431 kts | 271° |
| 2026-05-01 14:24 | 34.42068 | -109.03156 | 40087 ft | 431 kts | 271° |
| 2026-05-01 14:24 | 34.42269 | -109.10393 | 40084 ft | 430 kts | 271° |
| 2026-05-01 14:25 | 34.42721 | -109.17577 | 40083 ft | 430 kts | 276° |
| 2026-05-01 14:25 | 34.43398 | -109.24754 | 40073 ft | 430 kts | 276° |
| 2026-05-01 14:26 | 34.44421 | -109.35506 | 40065 ft | 430 kts | 276° |
| 2026-05-01 14:27 | 34.45105 | -109.42689 | 40061 ft | 428 kts | 276° |
| 2026-05-01 14:27 | 34.45778 | -109.49808 | 40064 ft | 428 kts | 276° |
| 2026-05-01 14:28 | 34.46789 | -109.60582 | 40072 ft | 429 kts | 276° |
| 2026-05-01 14:28 | 34.47455 | -109.67725 | 40093 ft | 428 kts | 276° |
| 2026-05-01 14:29 | 34.48116 | -109.74861 | 40101 ft | 427 kts | 276° |
| 2026-05-01 14:30 | 34.49426 | -109.89148 | 40109 ft | 428 kts | 276° |
| 2026-05-01 14:31 | 34.50399 | -109.99875 | 40115 ft | 427 kts | 276° |
| 2026-05-01 14:31 | 34.51039 | -110.06993 | 40116 ft | 426 kts | 276° |
| 2026-05-01 14:32 | 34.51674 | -110.14101 | 40116 ft | 426 kts | 276° |
| 2026-05-01 14:32 | 34.52309 | -110.21256 | 40115 ft | 426 kts | 276° |
| 2026-05-01 14:33 | 34.52937 | -110.28377 | 40112 ft | 426 kts | 276° |
| 2026-05-01 14:33 | 34.53560 | -110.35492 | 40109 ft | 426 kts | 276° |
| 2026-05-01 14:34 | 34.54182 | -110.42635 | 40105 ft | 426 kts | 276° |
| 2026-05-01 14:34 | 34.54802 | -110.49809 | 40101 ft | 427 kts | 276° |
| 2026-05-01 14:35 | 34.55412 | -110.56935 | 40097 ft | 427 kts | 276° |
| 2026-05-01 14:35 | 34.56023 | -110.64106 | 40093 ft | 427 kts | 276° |
| 2026-05-01 14:36 | 34.56627 | -110.71252 | 40102 ft | 427 kts | 275° |
| 2026-05-01 14:36 | 34.57230 | -110.78423 | 40096 ft | 427 kts | 275° |
| 2026-05-01 14:37 | 34.57824 | -110.85553 | 40093 ft | 427 kts | 275° |
| 2026-05-01 14:37 | 34.58422 | -110.92773 | 40090 ft | 428 kts | 275° |
| 2026-05-01 14:38 | 34.59008 | -110.99902 | 40086 ft | 426 kts | 275° |
| 2026-05-01 14:38 | 34.59590 | -111.07040 | 40085 ft | 426 kts | 275° |
| 2026-05-01 14:39 | 34.60169 | -111.14187 | 40082 ft | 427 kts | 275° |
| 2026-05-01 14:39 | 34.60745 | -111.21345 | 40081 ft | 426 kts | 275° |
| 2026-05-01 14:40 | 34.61313 | -111.28471 | 40077 ft | 425 kts | 276° |
| 2026-05-01 14:40 | 34.61879 | -111.35603 | 40071 ft | 426 kts | 276° |
| 2026-05-01 14:41 | 34.62441 | -111.42752 | 40063 ft | 426 kts | 276° |
| 2026-05-01 14:41 | 34.62999 | -111.49913 | 40060 ft | 424 kts | 276° |
| 2026-05-01 14:42 | 34.63549 | -111.57007 | 40058 ft | 424 kts | 276° |
| 2026-05-01 14:42 | 34.64097 | -111.64132 | 40056 ft | 424 kts | 276° |
| 2026-05-01 14:43 | 34.64635 | -111.71207 | 40075 ft | 423 kts | 275° |
| 2026-05-01 14:43 | 34.65174 | -111.78313 | 40073 ft | 423 kts | 275° |
| 2026-05-01 14:44 | 34.65706 | -111.85418 | 40054 ft | 423 kts | 275° |
| 2026-05-01 14:44 | 34.66502 | -111.96102 | 40045 ft | 423 kts | 275° |
| 2026-05-01 14:45 | 34.67283 | -112.06755 | 40036 ft | 421 kts | 275° |
| 2026-05-01 14:46 | 34.67796 | -112.13799 | 40040 ft | 422 kts | 275° |
| 2026-05-01 14:46 | 34.68562 | -112.24432 | 40050 ft | 422 kts | 275° |
| 2026-05-01 14:47 | 34.69067 | -112.31515 | 40059 ft | 422 kts | 275° |
| 2026-05-01 14:48 | 34.69817 | -112.42149 | 40065 ft | 422 kts | 275° |
| 2026-05-01 14:48 | 34.69545 | -112.52781 | 40061 ft | 424 kts | 265° |
| 2026-05-01 14:49 | 34.67991 | -112.66955 | 40066 ft | 423 kts | 264° |
| 2026-05-01 14:50 | 34.66340 | -112.81081 | 40059 ft | 423 kts | 264° |
| 2026-05-01 14:51 | 34.65080 | -112.91670 | 40053 ft | 422 kts | 264° |
| 2026-05-01 14:52 | 34.63817 | -113.02174 | 40038 ft | 420 kts | 264° |
| 2026-05-01 14:53 | 34.62542 | -113.12710 | 40028 ft | 420 kts | 264° |
| 2026-05-01 14:53 | 34.61693 | -113.19672 | 40019 ft | 419 kts | 264° |
| 2026-05-01 14:54 | 34.60840 | -113.26634 | 40013 ft | 418 kts | 264° |
| 2026-05-01 14:54 | 34.59981 | -113.33612 | 40008 ft | 419 kts | 264° |
| 2026-05-01 14:55 | 34.59117 | -113.40607 | 39998 ft | 420 kts | 264° |
| 2026-05-01 14:55 | 34.58251 | -113.47574 | 39991 ft | 419 kts | 264° |
| 2026-05-01 14:56 | 34.57379 | -113.54567 | 39984 ft | 418 kts | 264° |
| 2026-05-01 14:56 | 34.56507 | -113.61509 | 39998 ft | 414 kts | 264° |
| 2026-05-01 14:57 | 34.55718 | -113.68390 | 39956 ft | 415 kts | 264° |
| 2026-05-01 14:57 | 34.54562 | -113.78776 | 39943 ft | 415 kts | 264° |
| 2026-05-01 14:58 | 34.53788 | -113.85702 | 39936 ft | 414 kts | 264° |
| 2026-05-01 14:58 | 34.53016 | -113.92593 | 39932 ft | 413 kts | 264° |
| 2026-05-01 14:59 | 34.52234 | -113.99533 | 39943 ft | 417 kts | 264° |
| 2026-05-01 14:59 | 34.51286 | -114.06446 | 39935 ft | 418 kts | 259° |
| 2026-05-01 15:00 | 34.49183 | -114.16669 | 39923 ft | 418 kts | 259° |
| 2026-05-01 15:01 | 34.47752 | -114.23494 | 39918 ft | 417 kts | 259° |
| 2026-05-01 15:01 | 34.46318 | -114.30277 | 39916 ft | 417 kts | 259° |
| 2026-05-01 15:02 | 34.44878 | -114.37053 | 39914 ft | 417 kts | 259° |
| 2026-05-01 15:02 | 34.43427 | -114.43853 | 39912 ft | 417 kts | 259° |
| 2026-05-01 15:03 | 34.41971 | -114.50652 | 39913 ft | 417 kts | 259° |
| 2026-05-01 15:03 | 34.40519 | -114.57413 | 39913 ft | 417 kts | 259° |
| 2026-05-01 15:04 | 34.39056 | -114.64201 | 39911 ft | 417 kts | 259° |
| 2026-05-01 15:04 | 34.37588 | -114.70993 | 39926 ft | 419 kts | 258° |
| 2026-05-01 15:05 | 34.36108 | -114.77824 | 39951 ft | 419 kts | 258° |
| 2026-05-01 15:05 | 34.34624 | -114.84652 | 39952 ft | 419 kts | 258° |
| 2026-05-01 15:06 | 34.33143 | -114.91443 | 39955 ft | 419 kts | 258° |
| 2026-05-01 15:06 | 34.31653 | -114.98250 | 39957 ft | 418 kts | 258° |
| 2026-05-01 15:07 | 34.30165 | -115.05026 | 39960 ft | 417 kts | 258° |
| 2026-05-01 15:07 | 34.28677 | -115.11785 | 39963 ft | 417 kts | 258° |
| 2026-05-01 15:08 | 34.27192 | -115.18513 | 39956 ft | 417 kts | 258° |
| 2026-05-01 15:08 | 34.25729 | -115.25298 | 39959 ft | 418 kts | 259° |
| 2026-05-01 15:09 | 34.24281 | -115.32079 | 39962 ft | 418 kts | 259° |
| 2026-05-01 15:09 | 34.22829 | -115.38868 | 39962 ft | 414 kts | 259° |
| 2026-05-01 15:09 | 34.22122 | -115.42161 | 39943 ft | 397 kts | 259° |
| 2026-05-01 15:10 | 34.21447 | -115.45294 | 39940 ft | 378 kts | 259° |
| 2026-05-01 15:10 | 34.20186 | -115.51169 | 39960 ft | 354 kts | 259° |
| 2026-05-01 15:10 | 34.19563 | -115.54076 | 39984 ft | 359 kts | 259° |
| 2026-05-01 15:11 | 34.17662 | -115.62923 | 39984 ft | 367 kts | 259° |
| 2026-05-01 15:12 | 34.16456 | -115.68887 | 39994 ft | 363 kts | 264° |
| 2026-05-01 15:12 | 34.15534 | -115.77904 | 40011 ft | 362 kts | 265° |
| 2026-05-01 15:14 | 34.14048 | -115.92945 | 40022 ft | 363 kts | 264° |
| 2026-05-01 15:14 | 34.13151 | -116.02129 | 40048 ft | 370 kts | 264° |
| 2026-05-01 15:15 | 34.11937 | -116.14417 | 40051 ft | 368 kts | 264° |
| 2026-05-01 15:16 | 34.10721 | -116.26658 | 40040 ft | 369 kts | 264° |
| 2026-05-01 15:18 | 34.09108 | -116.41967 | 40024 ft | 369 kts | 264° |
| 2026-05-01 15:19 | 34.07788 | -116.54246 | 40043 ft | 369 kts | 264° |
| 2026-05-01 15:19 | 34.06871 | -116.63474 | 40056 ft | 370 kts | 265° |
| 2026-05-01 15:20 | 34.06005 | -116.72735 | 40094 ft | 371 kts | 264° |
| 2026-05-01 15:21 | 34.05426 | -116.78909 | 40109 ft | 372 kts | 264° |
| 2026-05-01 15:21 | 34.04844 | -116.85100 | 40115 ft | 373 kts | 264° |
| 2026-05-01 15:22 | 34.03757 | -116.94389 | 40098 ft | 374 kts | 262° |
| 2026-05-01 15:22 | 34.02968 | -117.00542 | 40088 ft | 374 kts | 262° |
| 2026-05-01 15:23 | 34.02217 | -117.06731 | 40071 ft | 371 kts | 263° |